createdAt,value
2022-08-21T00:01:51.485Z,10.80
2022-08-21T00:04:22.398Z,14.13
2022-08-21T00:06:51.777Z,12.88
2022-08-21T00:09:20.954Z,11.40
2022-08-21T00:11:49.115Z,12.73
2022-08-21T00:14:16.938Z,11.82
2022-08-21T00:16:44.089Z,12.40
2022-08-21T00:19:11.506Z,12.45
2022-08-21T00:21:38.361Z,11.45
2022-08-21T00:24:05.896Z,11.48
2022-08-21T00:26:34.538Z,11.10
2022-08-21T00:29:03.891Z,12.77
2022-08-21T00:31:30.904Z,12.13
2022-08-21T00:34:00.701Z,11.52
2022-08-21T00:36:29.495Z,10.38
2022-08-21T00:38:57.110Z,9.85
2022-08-21T00:41:37.274Z,10.18
2022-08-21T00:44:08.574Z,10.45
2022-08-21T00:46:36.250Z,9.68
2022-08-21T00:49:05.399Z,9.48
2022-08-21T00:51:42.821Z,11.05
2022-08-21T00:54:17.989Z,10.55
2022-08-21T00:56:48.915Z,10.27
2022-08-21T00:59:20.109Z,10.18
2022-08-21T01:01:47.851Z,9.90
2022-08-21T01:04:16.633Z,10.15
2022-08-21T01:06:44.257Z,10.52
2022-08-21T01:09:12.714Z,10.40
2022-08-21T01:11:40.705Z,10.85
2022-08-21T01:14:07.774Z,11.00
2022-08-21T01:16:35.283Z,11.10
2022-08-21T01:19:03.193Z,10.35
2022-08-21T01:21:30.037Z,12.23
2022-08-21T01:23:58.357Z,11.65
2022-08-21T01:26:34.138Z,11.23
2022-08-21T01:29:32.848Z,11.60
2022-08-21T01:32:09.923Z,11.95
2022-08-21T01:34:40.664Z,11.48
2022-08-21T01:37:08.138Z,11.80
2022-08-21T01:39:36.614Z,12.60
2022-08-21T01:42:05.362Z,13.18
2022-08-21T01:44:33.467Z,11.90
2022-08-21T01:47:05.018Z,11.95
2022-08-21T01:49:31.903Z,11.27
2022-08-21T01:51:58.777Z,11.55
2022-08-21T01:54:25.610Z,11.00
2022-08-21T01:56:55.336Z,11.23
2022-08-21T01:59:25.112Z,10.57
2022-08-21T02:01:52.169Z,9.93
2022-08-21T02:04:19.078Z,10.63
2022-08-21T02:06:45.993Z,10.63
2022-08-21T02:09:14.971Z,10.20
2022-08-21T02:11:43.417Z,10.48
2022-08-21T02:14:13.811Z,8.93
2022-08-21T02:16:43.206Z,9.90
2022-08-21T02:19:11.040Z,9.95
2022-08-21T02:21:38.189Z,10.55
2022-08-21T02:24:06.404Z,10.00
2022-08-21T02:26:33.718Z,10.52
2022-08-21T02:29:01.211Z,10.35
2022-08-21T02:31:28.159Z,9.88
2022-08-21T02:33:54.961Z,9.18
2022-08-21T02:36:21.954Z,10.13
2022-08-21T02:38:49.044Z,10.52
2022-08-21T02:41:19.754Z,10.25
2022-08-21T02:43:46.622Z,10.75
2022-08-21T02:46:18.270Z,10.10
2022-08-21T02:48:45.373Z,10.80
2022-08-21T02:51:19.438Z,11.55
2022-08-21T02:53:48.445Z,10.80
2022-08-21T02:56:19.727Z,10.73
2022-08-21T02:58:53.460Z,9.77
2022-08-21T03:01:21.441Z,9.13
2022-08-21T03:03:51.746Z,8.75
2022-08-21T03:06:22.607Z,8.63
2022-08-21T03:08:50.197Z,8.65
2022-08-21T03:11:17.481Z,8.55
2022-08-21T03:13:44.361Z,9.35
2022-08-21T03:16:11.481Z,9.52
2022-08-21T03:18:39.002Z,10.43
2022-08-21T03:21:07.908Z,10.45
2022-08-21T03:23:35.101Z,10.68
2022-08-21T03:26:02.299Z,10.95
2022-08-21T03:28:29.572Z,11.15
2022-08-21T03:30:56.584Z,10.48
2022-08-21T03:33:23.979Z,9.98
2022-08-21T03:36:06.523Z,9.77
2022-08-21T03:38:35.894Z,9.15
2022-08-21T03:41:04.502Z,9.02
2022-08-21T03:43:33.079Z,9.43
2022-08-21T03:46:03.117Z,9.90
2022-08-21T03:48:30.608Z,9.10
2022-08-21T03:50:57.550Z,8.77
2022-08-21T03:53:25.485Z,9.57
2022-08-21T03:55:53.590Z,9.38
2022-08-21T03:58:27.698Z,9.57
2022-08-21T04:00:59.553Z,9.10
2022-08-21T04:03:28.971Z,8.57
2022-08-21T04:05:56.479Z,8.60
2022-08-21T04:08:23.482Z,8.60
2022-08-21T04:10:54.484Z,8.20
2022-08-21T04:13:22.095Z,8.50
2022-08-21T04:15:50.105Z,8.70
2022-08-21T04:18:17.892Z,9.50
2022-08-21T04:20:50.152Z,9.30
2022-08-21T04:23:24.035Z,9.38
2022-08-21T04:25:54.288Z,9.32
2022-08-21T04:28:23.114Z,8.65
2022-08-21T04:30:52.948Z,9.30
2022-08-21T04:33:21.756Z,8.23
2022-08-21T04:35:50.422Z,8.70
2022-08-21T04:38:17.550Z,9.32
2022-08-21T04:40:45.390Z,8.93
2022-08-21T04:43:12.805Z,8.73
2022-08-21T04:45:45.327Z,8.95
2022-08-21T04:48:14.893Z,9.32
2022-08-21T04:51:02.310Z,9.80
2022-08-21T04:53:37.171Z,9.55
2022-08-21T04:56:22.217Z,10.25
2022-08-21T04:58:50.722Z,9.40
2022-08-21T05:01:23.451Z,9.88
2022-08-21T05:03:57.334Z,9.30
2022-08-21T05:06:25.907Z,8.43
2022-08-21T05:09:01.996Z,9.35
2022-08-21T05:11:31.875Z,9.18
2022-08-21T05:13:59.372Z,9.48
2022-08-21T05:16:37.430Z,9.43
2022-08-21T05:19:06.517Z,8.73
2022-08-21T05:21:39.345Z,9.10
2022-08-21T05:24:06.413Z,9.77
2022-08-21T05:26:33.816Z,9.88
2022-08-21T05:29:13.024Z,9.48
2022-08-21T05:31:40.001Z,10.23
2022-08-21T05:34:07.716Z,10.65
2022-08-21T05:36:34.780Z,10.52
2022-08-21T05:39:01.870Z,10.93
2022-08-21T05:41:28.777Z,9.18
2022-08-21T05:43:55.662Z,9.05
2022-08-21T05:46:22.666Z,8.27
2022-08-21T05:48:49.816Z,8.32
2022-08-21T05:51:17.409Z,8.70
2022-08-21T05:53:45.627Z,8.25
2022-08-21T05:56:13.970Z,8.68
2022-08-21T05:58:40.872Z,8.48
2022-08-21T06:01:09.810Z,7.82
2022-08-21T06:03:40.848Z,7.50
2022-08-21T06:06:08.658Z,8.60
2022-08-21T06:08:35.790Z,9.18
2022-08-21T06:11:05.524Z,8.73
2022-08-21T06:13:32.958Z,9.15
2022-08-21T06:16:16.369Z,9.20
2022-08-21T06:18:46.445Z,8.75
2022-08-21T06:21:14.561Z,7.93
2022-08-21T06:23:42.658Z,8.68
2022-08-21T06:26:12.850Z,8.23
2022-08-21T06:28:41.235Z,8.07
2022-08-21T06:31:18.995Z,9.18
2022-08-21T06:33:47.102Z,8.75
2022-08-21T06:36:14.376Z,8.95
2022-08-21T06:38:41.716Z,8.95
2022-08-21T06:41:17.588Z,8.73
2022-08-21T06:43:44.882Z,8.60
2022-08-21T06:46:11.701Z,9.10
2022-08-21T06:48:38.587Z,8.65
2022-08-21T06:51:05.925Z,9.07
2022-08-21T06:53:33.894Z,9.15
2022-08-21T06:56:00.749Z,9.10
2022-08-21T06:58:27.819Z,8.98
2022-08-21T07:01:00.099Z,9.40
2022-08-21T07:03:33.589Z,9.07
2022-08-21T07:06:00.516Z,8.80
2022-08-21T07:08:29.026Z,9.10
2022-08-21T07:11:01.154Z,8.10
2022-08-21T07:13:28.806Z,8.98
2022-08-21T07:15:59.126Z,8.82
2022-08-21T07:18:28.781Z,8.77
2022-08-21T07:20:56.417Z,8.18
2022-08-21T07:23:27.388Z,8.77
2022-08-21T07:25:54.877Z,8.23
2022-08-21T07:28:21.918Z,8.65
2022-08-21T07:30:55.698Z,9.02
2022-08-21T07:33:23.676Z,8.23
2022-08-21T07:35:50.811Z,8.57
2022-08-21T07:38:18.967Z,7.80
2022-08-21T07:40:48.442Z,8.30
2022-08-21T07:43:17.766Z,8.23
2022-08-21T07:45:45.728Z,7.53
2022-08-21T07:48:12.840Z,8.30
2022-08-21T07:50:41.624Z,7.68
2022-08-21T07:53:08.549Z,7.43
2022-08-21T07:55:35.791Z,7.10
2022-08-21T07:58:02.799Z,7.13
2022-08-21T08:00:30.169Z,7.00
2022-08-21T08:02:58.389Z,7.47
2022-08-21T08:05:30.711Z,6.63
2022-08-21T08:07:59.152Z,6.80
2022-08-21T08:10:27.374Z,6.00
2022-08-21T08:12:55.905Z,5.00
2022-08-21T08:15:26.945Z,4.43
2022-08-21T08:17:55.813Z,3.88
2022-08-21T08:20:26.015Z,3.17
2022-08-21T08:22:54.282Z,2.45
2022-08-21T08:25:23.992Z,2.58
2022-08-21T08:27:50.923Z,3.17
2022-08-21T08:30:20.443Z,2.33
2022-08-21T08:32:48.620Z,2.88
2022-08-21T08:35:16.305Z,1.70
2022-08-21T08:37:43.817Z,3.13
2022-08-21T08:41:17.880Z,2.95
2022-08-21T08:43:55.190Z,4.20
2022-08-21T08:46:41.813Z,3.50
2022-08-21T08:49:20.416Z,2.70
2022-08-21T08:51:58.154Z,3.67
2022-08-21T08:55:02.914Z,3.55
2022-08-21T08:57:31.396Z,3.47
2022-08-21T09:00:06.019Z,4.05
2022-08-21T09:02:35.080Z,3.53
2022-08-21T09:05:02.471Z,3.83
2022-08-21T09:08:01.914Z,3.83
2022-08-21T09:10:52.851Z,3.10
2022-08-21T09:14:08.625Z,3.55
2022-08-21T09:17:18.650Z,3.28
2022-08-21T09:19:57.494Z,3.22
2022-08-21T09:22:56.830Z,3.45
2022-08-21T09:25:33.770Z,2.83
2022-08-21T09:28:00.627Z,3.08
2022-08-21T09:30:33.235Z,2.95
2022-08-21T09:33:00.971Z,2.50
2022-08-21T09:35:28.086Z,2.50
2022-08-21T09:38:03.933Z,2.50
2022-08-21T09:40:47.021Z,2.70
2022-08-21T09:43:21.195Z,3.03
2022-08-21T09:45:50.740Z,3.00
2022-08-21T09:48:26.885Z,2.60
2022-08-21T09:51:05.762Z,3.40
2022-08-21T09:53:36.022Z,3.10
2022-08-21T09:56:46.661Z,3.20
2022-08-21T09:59:37.153Z,2.50
2022-08-21T10:02:35.034Z,2.80
2022-08-21T10:05:20.066Z,2.30
2022-08-21T10:07:46.940Z,2.92
2022-08-21T10:10:21.566Z,2.42
2022-08-21T10:13:17.796Z,2.00
2022-08-21T10:16:14.115Z,2.50
2022-08-21T10:18:57.146Z,2.30
2022-08-21T10:21:55.426Z,2.17
2022-08-21T10:24:37.926Z,2.40
2022-08-21T10:27:28.724Z,2.45
2022-08-21T10:30:05.062Z,2.20
2022-08-21T10:33:02.321Z,2.42
2022-08-21T10:35:37.995Z,2.38
2022-08-21T10:38:48.739Z,2.28
2022-08-21T10:42:06.033Z,1.80
2022-08-21T10:45:15.005Z,2.00
2022-08-21T10:47:50.055Z,2.20
2022-08-21T10:50:47.538Z,2.30
2022-08-21T10:53:42.349Z,2.10
2022-08-21T10:56:24.273Z,2.10
2022-08-21T10:59:35.355Z,1.90
2022-08-21T11:02:23.068Z,2.20
2022-08-21T11:05:11.093Z,2.20
2022-08-21T11:07:59.504Z,1.98
2022-08-21T11:10:51.345Z,2.00
2022-08-21T11:13:44.368Z,2.38
2022-08-21T11:16:38.544Z,2.00
2022-08-21T11:19:29.388Z,2.20
2022-08-21T11:22:20.995Z,2.00
2022-08-21T11:25:12.635Z,1.83
2022-08-21T11:28:02.281Z,1.88
2022-08-21T11:31:08.886Z,2.35
2022-08-21T11:34:02.580Z,2.25
2022-08-21T11:37:06.686Z,2.13
2022-08-21T11:39:33.421Z,2.05
2022-08-21T11:42:23.334Z,2.00
2022-08-21T11:45:15.631Z,2.20
2022-08-21T11:48:41.046Z,2.20
2022-08-21T11:51:19.286Z,2.00
2022-08-21T11:54:07.211Z,2.20
2022-08-21T11:56:53.095Z,2.20
2022-08-21T11:59:42.234Z,1.73
2022-08-21T12:02:21.929Z,1.50
2022-08-21T12:05:00.258Z,1.60
2022-08-21T12:07:45.609Z,1.65
2022-08-21T12:10:18.247Z,1.80
2022-08-21T12:12:46.489Z,1.70
2022-08-21T12:15:27.176Z,1.40
2022-08-21T12:17:58.064Z,1.77
2022-08-21T12:20:30.634Z,1.48
2022-08-21T12:23:17.080Z,1.88
2022-08-21T12:26:24.488Z,1.60
2022-08-21T12:28:51.723Z,1.77
2022-08-21T12:31:27.867Z,1.55
2022-08-21T12:34:06.671Z,1.77
2022-08-21T12:37:37.695Z,1.58
2022-08-21T12:40:12.755Z,1.38
2022-08-21T12:42:58.668Z,1.60
2022-08-21T12:45:48.749Z,1.23
2022-08-21T12:48:25.121Z,0.98
2022-08-21T12:51:11.860Z,1.20
2022-08-21T12:53:56.736Z,1.25
2022-08-21T12:56:28.177Z,1.05
2022-08-21T12:59:03.021Z,1.27
2022-08-21T13:01:41.895Z,1.48
2022-08-21T13:04:17.925Z,1.23
2022-08-21T13:06:49.915Z,1.30
2022-08-21T13:09:27.225Z,1.40
2022-08-21T13:11:55.212Z,1.38
2022-08-21T13:14:38.346Z,1.55
2022-08-21T13:17:13.009Z,1.20
2022-08-21T13:20:00.274Z,1.38
2022-08-21T13:22:34.025Z,1.33
2022-08-21T13:25:06.551Z,1.17
2022-08-21T13:27:35.311Z,1.20
2022-08-21T13:30:23.987Z,1.38
2022-08-21T13:32:58.076Z,1.30
2022-08-21T13:35:48.277Z,1.27
2022-08-21T13:38:17.388Z,0.90
2022-08-21T13:41:18.674Z,1.17
2022-08-21T13:43:56.860Z,1.10
2022-08-21T13:46:29.257Z,1.30
2022-08-21T13:48:57.332Z,1.38
2022-08-21T13:51:25.064Z,1.17
2022-08-21T13:53:53.951Z,1.10
2022-08-21T13:56:33.724Z,1.02
2022-08-21T13:59:04.753Z,0.88
2022-08-21T14:01:36.724Z,0.90
2022-08-21T14:04:20.337Z,0.93
2022-08-21T14:06:48.016Z,1.00
2022-08-21T14:09:30.243Z,1.27
2022-08-21T14:12:00.140Z,1.02
2022-08-21T14:14:36.231Z,0.85
2022-08-21T14:17:25.317Z,1.10
2022-08-21T14:19:59.620Z,1.10
2022-08-21T14:22:30.062Z,0.90
2022-08-21T14:25:10.277Z,0.80
2022-08-21T14:27:45.766Z,1.02
2022-08-21T14:30:37.973Z,1.33
2022-08-21T14:33:12.861Z,1.10
2022-08-21T14:35:40.996Z,1.30
2022-08-21T14:38:18.667Z,1.10
2022-08-21T14:40:51.810Z,1.00
2022-08-21T14:43:20.410Z,1.00
2022-08-21T14:45:48.142Z,1.20
2022-08-21T14:48:15.394Z,1.10
2022-08-21T14:50:43.085Z,1.10
2022-08-21T14:53:11.522Z,0.90
2022-08-21T14:56:12.831Z,1.20
2022-08-21T14:58:43.695Z,1.20
2022-08-21T15:01:14.949Z,0.90
2022-08-21T15:03:42.898Z,1.13
2022-08-21T15:06:10.616Z,0.90
2022-08-21T15:08:39.018Z,1.10
2022-08-21T15:11:12.118Z,0.90
2022-08-21T15:13:40.797Z,1.17
2022-08-21T15:16:12.327Z,0.93
2022-08-21T15:18:40.064Z,1.10
2022-08-21T15:21:07.211Z,1.13
2022-08-21T15:23:34.659Z,1.10
2022-08-21T15:26:02.172Z,1.10
2022-08-21T15:28:31.771Z,1.13
2022-08-21T15:31:01.808Z,0.93
2022-08-21T15:33:29.741Z,0.90
2022-08-21T15:35:56.997Z,1.23
2022-08-21T15:38:24.629Z,1.10
2022-08-21T15:40:52.669Z,1.00
2022-08-21T15:43:30.653Z,0.80
2022-08-21T15:46:00.621Z,0.75
2022-08-21T15:48:27.918Z,0.90
2022-08-21T15:50:54.833Z,1.13
2022-08-21T15:53:21.821Z,0.73
2022-08-21T15:55:48.790Z,0.93
2022-08-21T15:58:17.996Z,1.00
2022-08-21T16:00:47.761Z,1.13
2022-08-21T16:03:20.695Z,0.80
2022-08-21T16:05:49.950Z,0.95
2022-08-21T16:08:18.005Z,1.10
2022-08-21T16:10:44.895Z,1.30
2022-08-21T16:13:30.236Z,0.90
2022-08-21T16:15:57.275Z,0.90
2022-08-21T16:18:26.576Z,1.25
2022-08-21T16:20:53.701Z,0.80
2022-08-21T16:23:20.626Z,0.85
2022-08-21T16:25:48.806Z,0.90
2022-08-21T16:28:19.192Z,1.00
2022-08-21T16:30:50.381Z,1.23
2022-08-21T16:33:32.289Z,1.00
2022-08-21T16:36:00.475Z,0.80
2022-08-21T16:38:29.467Z,0.90
2022-08-21T16:40:56.706Z,0.93
2022-08-21T16:43:27.114Z,0.77
2022-08-21T16:45:56.763Z,1.08
2022-08-21T16:48:24.873Z,1.08
2022-08-21T16:50:51.787Z,0.90
2022-08-21T16:53:18.706Z,0.90
2022-08-21T16:55:47.290Z,0.98
2022-08-21T16:58:37.918Z,1.00
2022-08-21T17:01:10.744Z,1.35
2022-08-21T17:03:42.551Z,0.82
2022-08-21T17:06:10.543Z,0.52
2022-08-21T17:08:38.150Z,0.70
2022-08-21T17:11:37.366Z,1.17
2022-08-21T17:14:13.891Z,0.70
2022-08-21T17:16:46.428Z,0.70
2022-08-21T17:19:14.347Z,0.75
2022-08-21T17:21:41.564Z,1.00
2022-08-21T17:24:08.652Z,0.90
2022-08-21T17:26:36.911Z,0.90
2022-08-21T17:29:09.776Z,0.70
2022-08-21T17:31:40.023Z,0.90
2022-08-21T17:34:07.901Z,1.00
2022-08-21T17:36:35.084Z,0.70
2022-08-21T17:39:02.514Z,1.00
2022-08-21T17:41:29.467Z,0.90
2022-08-21T17:43:56.393Z,1.00
2022-08-21T17:46:28.132Z,1.10
2022-08-21T17:48:56.800Z,0.93
2022-08-21T17:51:24.159Z,1.00
2022-08-21T17:53:50.992Z,0.80
2022-08-21T17:56:19.861Z,1.00
2022-08-21T17:58:50.553Z,1.00
2022-08-21T18:01:19.414Z,0.93
2022-08-21T18:03:47.488Z,0.80
2022-08-21T18:06:17.975Z,0.75
2022-08-21T18:08:46.209Z,0.98
2022-08-21T18:11:23.141Z,0.80
2022-08-21T18:13:54.130Z,0.82
2022-08-21T18:16:22.804Z,0.73
2022-08-21T18:18:51.637Z,0.98
2022-08-21T18:21:20.257Z,0.80
2022-08-21T18:23:47.708Z,0.77
2022-08-21T18:26:21.968Z,0.80
2022-08-21T18:28:48.985Z,0.80
2022-08-21T18:31:16.036Z,1.00
2022-08-21T18:33:52.846Z,0.93
2022-08-21T18:36:27.936Z,0.68
2022-08-21T18:39:13.480Z,1.10
2022-08-21T18:41:46.069Z,1.00
2022-08-21T18:44:15.673Z,1.10
2022-08-21T18:46:49.195Z,0.90
2022-08-21T18:49:16.251Z,1.13
2022-08-21T18:51:45.370Z,1.15
2022-08-21T18:54:13.156Z,1.02
2022-08-21T18:56:41.715Z,1.10
2022-08-21T18:59:10.872Z,0.90
2022-08-21T19:01:38.671Z,0.90
2022-08-21T19:04:08.949Z,1.05
2022-08-21T19:06:36.456Z,1.17
2022-08-21T19:09:09.426Z,1.00
2022-08-21T19:11:41.018Z,1.23
2022-08-21T19:14:15.266Z,1.17
2022-08-21T19:19:32.517Z,1.02
2022-08-21T19:21:59.661Z,1.17
2022-08-21T19:24:26.640Z,1.08
2022-08-21T19:26:55.885Z,0.93
2022-08-21T19:29:34.667Z,1.20
2022-08-21T19:32:05.910Z,0.98
2022-08-21T19:34:34.982Z,0.93
2022-08-21T19:37:03.488Z,1.08
2022-08-21T19:39:39.493Z,1.20
2022-08-21T19:42:10.202Z,1.00
2022-08-21T19:44:39.574Z,1.00
2022-08-21T19:47:19.079Z,1.30
2022-08-21T19:49:54.155Z,1.30
2022-08-21T19:52:22.820Z,0.80
2022-08-21T19:54:51.913Z,1.00
2022-08-21T19:57:19.298Z,1.20
2022-08-21T19:59:47.005Z,1.90
2022-08-21T20:02:17.484Z,1.10
2022-08-21T20:07:32.136Z,1.38
2022-08-21T20:09:59.256Z,1.30
2022-08-21T20:12:26.590Z,1.20
2022-08-21T20:14:55.168Z,0.90
2022-08-21T20:17:22.798Z,1.20
2022-08-21T20:19:54.409Z,1.30
2022-08-21T20:22:22.743Z,1.50
2022-08-21T20:24:51.538Z,1.30
2022-08-21T20:27:27.770Z,1.40
2022-08-21T20:29:55.435Z,1.20
2022-08-21T20:32:22.693Z,1.33
2022-08-21T20:34:52.112Z,1.70
2022-08-21T20:37:35.880Z,1.60
2022-08-21T20:40:10.500Z,1.40
2022-08-21T20:45:33.181Z,1.55
2022-08-21T20:48:16.866Z,1.35
2022-08-21T20:51:00.731Z,1.50
2022-08-21T20:53:54.445Z,1.45
2022-08-21T20:56:38.269Z,1.52
2022-08-21T20:59:40.526Z,1.50
2022-08-21T21:02:16.299Z,1.60
2022-08-21T21:05:21.973Z,1.50
2022-08-21T21:08:02.055Z,1.42
2022-08-21T21:10:46.965Z,1.40
2022-08-21T21:13:28.597Z,1.60
2022-08-21T21:16:07.489Z,1.92
2022-08-21T21:18:53.792Z,1.42
2022-08-21T21:21:37.357Z,1.50
2022-08-21T21:24:16.024Z,1.63
2022-08-21T21:26:59.842Z,1.70
2022-08-21T21:29:37.130Z,1.55
2022-08-21T21:32:06.000Z,1.45
2022-08-21T21:34:46.371Z,1.80
2022-08-21T21:37:37.358Z,1.60
2022-08-21T21:40:46.358Z,1.65
2022-08-21T21:43:54.113Z,1.80
2022-08-21T21:46:27.020Z,1.65
2022-08-21T21:49:32.995Z,1.70
2022-08-21T21:52:10.044Z,1.70
2022-08-21T21:54:58.333Z,1.70
2022-08-21T22:00:42.733Z,1.75
2022-08-21T22:03:41.140Z,1.73
2022-08-21T22:06:22.732Z,2.05
2022-08-21T22:09:10.432Z,1.70
2022-08-21T22:12:01.964Z,1.80
2022-08-21T22:14:41.505Z,1.58
2022-08-21T22:17:35.907Z,1.80
2022-08-21T22:20:24.049Z,1.50
2022-08-21T22:22:55.957Z,1.77
2022-08-21T22:25:33.207Z,1.77
2022-08-21T22:28:13.645Z,1.60
2022-08-21T22:30:47.413Z,1.45
2022-08-21T22:33:22.800Z,1.58
2022-08-21T22:35:54.918Z,1.70
2022-08-21T22:38:27.786Z,1.80
2022-08-21T22:41:19.149Z,1.60
2022-08-21T22:49:50.390Z,1.75
2022-08-21T22:52:44.750Z,1.98
2022-08-21T22:55:26.814Z,1.70
2022-08-21T22:58:27.464Z,1.60
2022-08-21T23:01:21.240Z,1.77
2022-08-21T23:03:57.240Z,1.65
2022-08-21T23:06:46.538Z,1.45
2022-08-21T23:09:36.356Z,1.40
2022-08-21T23:12:32.957Z,1.80
2022-08-21T23:15:10.637Z,1.85
2022-08-21T23:18:03.010Z,1.83
2022-08-21T23:20:57.637Z,1.70
2022-08-21T23:23:31.372Z,1.70
2022-08-21T23:26:52.152Z,1.65
2022-08-21T23:30:01.957Z,1.65
2022-08-21T23:33:30.174Z,1.80
2022-08-21T23:36:52.950Z,1.73
2022-08-21T23:39:59.750Z,1.50
2022-08-21T23:42:36.288Z,1.70
2022-08-21T23:45:41.007Z,1.77
2022-08-21T23:48:51.925Z,1.70
2022-08-21T23:51:24.231Z,1.88
2022-08-21T23:54:20.825Z,1.98
2022-08-21T23:57:31.352Z,2.03
